createdAt,value
2023-01-25T00:03:34.287Z,103767.25
2023-01-25T00:08:30.803Z,103768.97
2023-01-25T00:13:27.320Z,103762.59
2023-01-25T00:18:23.792Z,103752.50
2023-01-25T00:23:20.202Z,103748.78
2023-01-25T00:28:16.660Z,103744.38
2023-01-25T00:33:15.756Z,103750.19
2023-01-25T00:38:28.610Z,103749.19
2023-01-25T00:43:25.225Z,103739.78
2023-01-25T00:48:21.649Z,103733.19
2023-01-25T00:53:18.050Z,103725.00
2023-01-25T00:58:14.431Z,103723.56
2023-01-25T01:03:10.854Z,103724.38
2023-01-25T01:08:07.285Z,103710.75
2023-01-25T01:13:03.829Z,103717.66
2023-01-25T01:18:00.200Z,103715.97
2023-01-25T01:22:56.779Z,103711.91
2023-01-25T01:27:53.145Z,103712.25
2023-01-25T01:32:51.465Z,103704.69
2023-01-25T01:37:47.957Z,103719.69
2023-01-25T01:43:01.238Z,103703.88
2023-01-25T01:47:57.610Z,103701.84
2023-01-25T01:52:54.162Z,103697.97
2023-01-25T01:57:56.019Z,103694.16
2023-01-25T02:02:54.360Z,103692.97
2023-01-25T02:07:54.755Z,103684.75
2023-01-25T02:12:54.133Z,103692.16
2023-01-25T02:17:51.426Z,103681.41
2023-01-25T02:23:05.290Z,103680.03
2023-01-25T02:28:22.476Z,103678.69
2023-01-25T02:33:18.962Z,103671.97
2023-01-25T02:38:18.173Z,103678.03
2023-01-25T02:43:16.188Z,103664.25
2023-01-25T02:48:12.580Z,103663.44
2023-01-25T02:53:09.113Z,103654.84
2023-01-25T02:58:05.503Z,103647.81
2023-01-25T03:03:01.966Z,103651.88
2023-01-25T03:07:58.442Z,103654.22
2023-01-25T03:12:54.826Z,103646.84
2023-01-25T03:17:51.311Z,103635.41
2023-01-25T03:22:47.804Z,103638.28
2023-01-25T03:27:44.216Z,103625.03
2023-01-25T03:32:40.660Z,103621.66
2023-01-25T03:37:37.102Z,103609.91
2023-01-25T03:42:33.478Z,103616.47
2023-01-25T03:47:29.920Z,103599.84
2023-01-25T03:52:29.969Z,103609.75
2023-01-25T03:57:26.406Z,103607.91
2023-01-25T04:02:22.894Z,103602.88
2023-01-25T04:07:20.011Z,103596.34
2023-01-25T04:12:16.429Z,103595.50
2023-01-25T04:17:14.002Z,103596.84
2023-01-25T04:22:10.526Z,103584.59
2023-01-25T04:27:07.066Z,103577.06
2023-01-25T04:32:03.645Z,103583.56
2023-01-25T04:37:00.115Z,103586.09
2023-01-25T04:41:56.511Z,103565.97
2023-01-25T04:46:52.932Z,103555.53
2023-01-25T04:51:49.384Z,103558.56
2023-01-25T04:56:45.823Z,103550.53
2023-01-25T05:01:42.252Z,103552.84
2023-01-25T05:06:38.636Z,103544.50
2023-01-25T05:11:35.087Z,103538.63
2023-01-25T05:16:31.642Z,103539.78
2023-01-25T05:21:46.811Z,103538.78
2023-01-25T05:27:01.593Z,103537.75
2023-01-25T05:31:59.213Z,103526.53
2023-01-25T05:36:56.345Z,103519.00
2023-01-25T05:41:53.012Z,103513.28
2023-01-25T05:46:50.283Z,103515.25
2023-01-25T05:51:47.252Z,103508.91
2023-01-25T05:56:44.220Z,103505.91
2023-01-25T06:01:40.698Z,103502.53
2023-01-25T06:06:37.117Z,103493.50
2023-01-25T06:11:33.608Z,103498.50
2023-01-25T06:16:30.040Z,103486.91
2023-01-25T06:21:26.484Z,103496.50
2023-01-25T06:26:22.931Z,103489.75
2023-01-25T06:31:19.445Z,103498.50
2023-01-25T06:36:18.545Z,103491.09
2023-01-25T06:41:15.532Z,103498.47
2023-01-25T06:46:12.620Z,103493.47
2023-01-25T06:51:11.229Z,103481.69
2023-01-25T06:56:11.814Z,103501.84
2023-01-25T07:01:21.685Z,103499.84
2023-01-25T07:06:19.159Z,103494.47
2023-01-25T07:11:19.151Z,103480.34
2023-01-25T07:16:19.233Z,103480.03
2023-01-25T07:21:21.761Z,103481.03
2023-01-25T07:26:25.733Z,103466.78
2023-01-25T07:31:22.554Z,103468.97
2023-01-25T07:36:19.261Z,103468.66
2023-01-25T07:41:16.432Z,103449.88
2023-01-25T07:46:13.984Z,103457.22
2023-01-25T07:51:22.484Z,103451.53
2023-01-25T07:56:20.061Z,103449.19
2023-01-25T08:01:19.343Z,103447.34
2023-01-25T08:06:16.583Z,103425.34
2023-01-25T08:11:18.538Z,103417.31
2023-01-25T08:16:17.072Z,103425.34
2023-01-25T08:21:13.715Z,103425.66
2023-01-25T08:26:12.552Z,103419.00
2023-01-25T08:31:21.276Z,103415.44
2023-01-25T08:36:19.075Z,103407.56
2023-01-25T08:41:18.317Z,103405.84
2023-01-25T08:46:16.327Z,103384.78
2023-01-25T08:51:14.797Z,103378.84
2023-01-25T08:56:14.188Z,103379.66
2023-01-25T09:01:12.716Z,103374.34
2023-01-25T09:06:10.048Z,103366.66
2023-01-25T09:11:09.212Z,103358.81
2023-01-25T09:16:08.234Z,103365.78
2023-01-25T09:21:13.012Z,103364.28
2023-01-25T09:26:10.332Z,103345.47
2023-01-25T09:31:21.105Z,103348.78
2023-01-25T09:36:19.309Z,103350.94
2023-01-25T09:41:53.520Z,103340.03
2023-01-25T09:46:58.056Z,103333.19
2023-01-25T09:52:12.111Z,103338.75
2023-01-25T09:57:18.683Z,103324.91
2023-01-25T10:02:30.186Z,103319.97
2023-01-25T10:07:34.398Z,103313.66
2023-01-25T10:12:36.030Z,103315.94
2023-01-25T10:17:37.165Z,103312.22
2023-01-25T10:22:41.252Z,103316.94
2023-01-25T10:28:02.062Z,103288.56
2023-01-25T10:33:02.175Z,103278.00
2023-01-25T10:38:04.968Z,103271.78
2023-01-25T10:43:07.748Z,103262.16
2023-01-25T10:48:09.212Z,103268.94
2023-01-25T10:53:05.581Z,103265.94
2023-01-25T10:58:02.005Z,103252.47
2023-01-25T11:02:58.791Z,103240.38
2023-01-25T11:07:56.493Z,103231.34
2023-01-25T11:13:19.300Z,103210.09
2023-01-25T11:18:22.988Z,103201.03
2023-01-25T11:23:26.123Z,103193.03
2023-01-25T11:28:25.624Z,103186.81
2023-01-25T11:33:22.738Z,103164.25
2023-01-25T11:38:23.082Z,103163.31
2023-01-25T11:44:01.765Z,103150.06
2023-01-25T11:49:16.624Z,103132.19
2023-01-25T11:54:37.446Z,103131.47
2023-01-25T11:59:39.760Z,103111.91
2023-01-25T12:04:41.947Z,103098.47
2023-01-25T12:10:18.443Z,103087.78
2023-01-25T12:15:23.671Z,103074.88
2023-01-25T12:20:40.855Z,103063.88
2023-01-25T12:25:58.898Z,103060.53
2023-01-25T12:31:22.722Z,103037.22
2023-01-25T12:36:27.906Z,103030.28
2023-01-25T12:41:48.537Z,103014.44
2023-01-25T12:47:05.241Z,103006.19
2023-01-25T12:52:07.183Z,103009.06
2023-01-25T12:57:16.442Z,103001.19
2023-01-25T13:02:37.038Z,102989.25
2023-01-25T13:07:43.404Z,102983.38
2023-01-25T13:12:58.617Z,102971.16
2023-01-25T13:17:55.107Z,102966.34
2023-01-25T13:22:53.429Z,102963.59
2023-01-25T13:27:50.315Z,102956.91
2023-01-25T13:32:49.559Z,102948.69
2023-01-25T13:37:58.137Z,102939.72
2023-01-25T13:43:12.547Z,102928.41
2023-01-25T13:48:08.925Z,102926.94
2023-01-25T13:53:18.782Z,102931.75
2023-01-25T13:58:34.654Z,102917.84
2023-01-25T14:03:51.309Z,102914.91
2023-01-25T14:08:48.871Z,102915.38
2023-01-25T14:14:17.887Z,102913.25
2023-01-25T14:19:24.819Z,102910.28
2023-01-25T14:24:21.261Z,102906.38
2023-01-25T14:29:35.255Z,102897.22
2023-01-25T14:34:31.786Z,102886.59
2023-01-25T14:39:29.306Z,102891.84
2023-01-25T14:44:26.182Z,102887.88
2023-01-25T14:49:25.699Z,102887.69
2023-01-25T14:54:28.240Z,102873.19
2023-01-25T14:59:27.259Z,102869.91
2023-01-25T15:04:23.820Z,102879.19
2023-01-25T15:09:33.565Z,102880.31
2023-01-25T15:14:30.057Z,102883.06
2023-01-25T15:19:29.836Z,102882.50
2023-01-25T15:24:27.699Z,102875.94
2023-01-25T15:29:27.313Z,102875.94
2023-01-25T15:34:30.257Z,102868.44
2023-01-25T15:39:26.884Z,102859.63
2023-01-25T15:44:23.277Z,102848.63
2023-01-25T15:49:31.498Z,102841.97
2023-01-25T15:54:27.894Z,102835.31
2023-01-25T15:59:25.188Z,102821.06
2023-01-25T16:04:21.674Z,102815.13
2023-01-25T16:09:30.775Z,102833.44
2023-01-25T16:14:30.174Z,102825.09
2023-01-25T16:19:26.714Z,102802.38
2023-01-25T16:24:23.584Z,102813.84
2023-01-25T16:29:21.497Z,102816.91
2023-01-25T16:34:17.882Z,102816.72
2023-01-25T16:39:22.450Z,102808.75
2023-01-25T16:44:19.126Z,102810.53
2023-01-25T16:49:21.418Z,102800.91
2023-01-25T16:54:19.759Z,102794.88
2023-01-25T16:59:17.292Z,102794.97
2023-01-25T17:04:13.891Z,102811.44
2023-01-25T17:09:22.798Z,102793.88
2023-01-25T17:14:22.071Z,102790.84
2023-01-25T17:19:19.183Z,102781.94
2023-01-25T17:24:20.789Z,102795.34
2023-01-25T17:29:17.376Z,102794.97
2023-01-25T17:34:19.786Z,102781.06
2023-01-25T17:39:19.497Z,102780.78
2023-01-25T17:44:21.289Z,102769.91
2023-01-25T17:49:20.187Z,102759.06
2023-01-25T17:54:16.780Z,102751.31
2023-01-25T17:59:13.240Z,102738.34
2023-01-25T18:04:10.029Z,102722.09
2023-01-25T18:09:06.949Z,102716.47
2023-01-25T18:14:09.278Z,102719.53
2023-01-25T18:19:05.985Z,102707.78
2023-01-25T18:24:23.091Z,102704.16
2023-01-25T18:29:41.913Z,102693.91
2023-01-25T18:34:38.352Z,102697.38
2023-01-25T18:39:34.783Z,102681.53
2023-01-25T18:44:31.259Z,102667.66
2023-01-25T18:49:27.700Z,102681.81
2023-01-25T18:54:24.181Z,102668.63
2023-01-25T18:59:20.595Z,102650.97
2023-01-25T19:04:17.030Z,102656.69
2023-01-25T19:09:13.474Z,102656.97
2023-01-25T19:14:09.952Z,102648.53
2023-01-25T19:19:06.372Z,102644.66
2023-01-25T19:24:02.883Z,102643.00
2023-01-25T19:28:59.320Z,102624.50
2023-01-25T19:34:00.317Z,102616.28
2023-01-25T19:38:58.122Z,102607.88
2023-01-25T19:43:59.583Z,102594.38
2023-01-25T19:48:56.823Z,102597.97
2023-01-25T19:53:59.942Z,102576.69
2023-01-25T19:58:56.727Z,102583.03
2023-01-25T20:03:55.675Z,102574.44
2023-01-25T20:08:52.910Z,102563.78
2023-01-25T20:13:52.163Z,102569.78
2023-01-25T20:18:49.614Z,102570.28
2023-01-25T20:23:48.387Z,102557.44
2023-01-25T20:28:47.152Z,102543.81
2023-01-25T20:33:43.533Z,102542.19
2023-01-25T20:38:40.092Z,102552.00
2023-01-25T20:43:36.561Z,102552.50
2023-01-25T20:48:36.312Z,102557.53
2023-01-25T20:53:33.685Z,102550.56
2023-01-25T20:58:30.200Z,102539.00
2023-01-25T21:03:29.123Z,102543.31
2023-01-25T21:08:27.746Z,102554.34
2023-01-25T21:13:25.284Z,102533.63
2023-01-25T21:18:21.713Z,102539.09
2023-01-25T21:23:18.103Z,102550.22
2023-01-25T21:28:14.477Z,102533.25
2023-01-25T21:33:10.969Z,102527.50
2023-01-25T21:38:07.405Z,102519.84
2023-01-25T21:43:04.018Z,102522.34
2023-01-25T21:48:00.489Z,102510.50
2023-01-25T21:52:57.001Z,102510.78
2023-01-25T21:57:53.423Z,102509.69
2023-01-25T22:02:51.628Z,102500.56
2023-01-25T22:07:48.076Z,102506.34
2023-01-25T22:12:45.437Z,102511.78
2023-01-25T22:17:41.889Z,102492.00
2023-01-25T22:22:38.301Z,102481.84
2023-01-25T22:27:46.037Z,102490.22
2023-01-25T22:32:42.536Z,102477.97
2023-01-25T22:37:38.932Z,102471.31
2023-01-25T22:42:35.464Z,102482.44
2023-01-25T22:47:31.866Z,102477.06
2023-01-25T22:52:28.314Z,102471.31
2023-01-25T22:57:24.697Z,102482.88
2023-01-25T23:02:21.443Z,102482.28
2023-01-25T23:07:18.877Z,102472.19
2023-01-25T23:12:15.526Z,102461.03
2023-01-25T23:17:30.870Z,102456.03
2023-01-25T23:22:27.684Z,102447.34
2023-01-25T23:27:24.112Z,102452.72
2023-01-25T23:32:21.445Z,102443.22
2023-01-25T23:37:17.877Z,102436.22
2023-01-25T23:42:14.335Z,102436.31
2023-01-25T23:47:10.792Z,102423.81
2023-01-25T23:52:07.211Z,102416.03
2023-01-25T23:57:03.713Z,102418.06
